PWSweather.com
Personal Weather Stations
Station Observations
KWIATHEL1
Marinette County, Athelstane, WI 54104

Marinette CountyAthelstane, WI 54104

Lat: 45.4, Lon: -88.12

Elevation: 960

Station Type: Acurite 5in1 Pro

http://weather.athelstanewi.com

Latest ConditionsUpdated 4:50:00 AM CDT Friday, Sep 30, 2016
Currently Today's Max Today's Min Today's Average
Temperature 49.5°F9.7°C 50.0°F10.0°C 48.2°F9.0°C 49.1°F9.5°C
Dew Point 48.4°F9.1°C 48.7°F9.3°C 46.4°F8.0°C 47.6°F8.7°C
Winds Calm Calm 1.2 mph ESE1.9 kmh ESE - 0.1 mph 0.2 kmh
Wind Gusts -- 2.3 mph3.7 kmh - -
Humidity 96% 96% 93% 94%
Pressure 30.35 in1027.8 mb 30.38 in1028.8 mb 30.35 in1027.8 mb -
Hour Temp Dew Point Humidity Winds Wind Gusts Pressure Precip Precip Rate Daily Precip Total
04:50 AM 49.5°F9.7°C 48.4°F9.1°C 96% Calm Calm -- 30.35 in1027.8 mb - 0.00 in0.0 mm 0.00 in0.0 mm
04:45 AM 49.5°F9.7°C 48.4°F9.1°C 96% Calm Calm -- 30.35 in1027.8 mb - 0.00 in0.0 mm 0.00 in0.0 mm
04:40 AM 49.5°F9.7°C 48.4°F9.1°C 96% Calm Calm 1.2 mph1.9 kmh 30.36 in1028.1 mb - 0.00 in0.0 mm 0.00 in0.0 mm
04:35 AM 49.5°F9.7°C 48.4°F9.1°C 96% Calm Calm -- 30.35 in1027.8 mb - 0.00 in0.0 mm 0.00 in0.0 mm
04:30 AM 49.5°F9.7°C 48.4°F9.1°C 96% Calm Calm -- 30.36 in1028.1 mb - 0.00 in0.0 mm 0.00 in0.0 mm
04:25 AM 49.5°F9.7°C 48.4°F9.1°C 96% Calm Calm -- 30.35 in1027.8 mb - 0.00 in0.0 mm 0.00 in0.0 mm
04:20 AM 49.5°F9.7°C 48.4°F9.1°C 96% Calm Calm -- 30.35 in1027.8 mb - 0.00 in0.0 mm 0.00 in0.0 mm
04:15 AM 49.5°F9.7°C 48.4°F9.1°C 96% Calm Calm -- 30.35 in1027.8 mb - 0.00 in0.0 mm 0.00 in0.0 mm
04:10 AM 49.6°F9.8°C 48.5°F9.2°C 96% Calm Calm -- 30.36 in1028.1 mb - 0.00 in0.0 mm 0.00 in0.0 mm
04:05 AM 49.8°F9.9°C 48.7°F9.3°C 96% Calm Calm -- 30.36 in1028.1 mb - 0.00 in0.0 mm 0.00 in0.0 mm
04:00 AM 49.5°F9.7°C 48.4°F9.1°C 96% Calm Calm -- 30.36 in1028.1 mb - 0.00 in0.0 mm 0.00 in0.0 mm
03:55 AM 48.9°F9.4°C 47.8°F8.8°C 96% Calm Calm 1.2 mph1.9 kmh 30.35 in1027.8 mb - 0.00 in0.0 mm 0.00 in0.0 mm
03:50 AM 48.6°F9.2°C 47.5°F8.6°C 96% Calm Calm -- 30.36 in1028.1 mb - 0.00 in0.0 mm 0.00 in0.0 mm
03:45 AM 48.5°F9.2°C 47.4°F8.6°C 96% Calm Calm -- 30.36 in1028.1 mb - 0.00 in0.0 mm 0.00 in0.0 mm
03:40 AM 48.3°F9.1°C 47.2°F8.4°C 96% Calm Calm -- 30.35 in1027.8 mb - 0.00 in0.0 mm 0.00 in0.0 mm
03:35 AM 48.4°F9.1°C 47.3°F8.5°C 96% Calm Calm -- 30.35 in1027.8 mb - 0.00 in0.0 mm 0.00 in0.0 mm
03:30 AM 48.4°F9.1°C 47.3°F8.5°C 96% Calm Calm -- 30.35 in1027.8 mb - 0.00 in0.0 mm 0.00 in0.0 mm
03:25 AM 48.6°F9.2°C 47.5°F8.6°C 96% Calm Calm -- 30.35 in1027.8 mb - 0.00 in0.0 mm 0.00 in0.0 mm
03:20 AM 48.4°F9.1°C 47.3°F8.5°C 96% Calm Calm -- 30.36 in1028.1 mb - 0.00 in0.0 mm 0.00 in0.0 mm
03:15 AM 48.4°F9.1°C 47.3°F8.5°C 96% Calm Calm -- 30.36 in1028.1 mb - 0.00 in0.0 mm 0.00 in0.0 mm
03:10 AM 48.4°F9.1°C 47.3°F8.5°C 96% Calm Calm -- 30.35 in1027.8 mb - 0.00 in0.0 mm 0.00 in0.0 mm
03:05 AM 48.2°F9.0°C 46.8°F8.2°C 95% Calm Calm -- 30.36 in1028.1 mb - 0.00 in0.0 mm 0.00 in0.0 mm
03:00 AM 48.4°F9.1°C 47.0°F8.3°C 95% Calm Calm -- 30.36 in1028.1 mb - 0.00 in0.0 mm 0.00 in0.0 mm
02:55 AM 48.2°F9.0°C 46.8°F8.2°C 95% Calm Calm -- 30.36 in1028.1 mb - 0.00 in0.0 mm 0.00 in0.0 mm
02:50 AM 48.4°F9.1°C 47.0°F8.3°C 95% Calm Calm -- 30.37 in1028.4 mb - 0.00 in0.0 mm 0.00 in0.0 mm
02:45 AM 48.7°F9.3°C 47.7°F8.7°C 96% Calm Calm -- 30.36 in1028.1 mb - 0.00 in0.0 mm 0.00 in0.0 mm
02:40 AM 48.9°F9.4°C 47.8°F8.8°C 96% Calm Calm -- 30.36 in1028.1 mb - 0.00 in0.0 mm 0.00 in0.0 mm
02:35 AM 48.4°F9.1°C 46.4°F8.0°C 93% Calm Calm -- 30.36 in1028.1 mb - 0.00 in0.0 mm 0.00 in0.0 mm
02:30 AM 48.4°F9.1°C 46.4°F8.0°C 93% Calm Calm -- 30.37 in1028.4 mb - 0.00 in0.0 mm 0.00 in0.0 mm
02:25 AM 48.4°F9.1°C 46.4°F8.0°C 93% Calm Calm -- 30.36 in1028.1 mb - 0.00 in0.0 mm 0.00 in0.0 mm
02:20 AM 48.6°F9.2°C 46.6°F8.1°C 93% Calm Calm -- 30.37 in1028.4 mb - 0.00 in0.0 mm 0.00 in0.0 mm
02:15 AM 48.6°F9.2°C 46.6°F8.1°C 93% Calm Calm -- 30.37 in1028.4 mb - 0.00 in0.0 mm 0.00 in0.0 mm
02:10 AM 48.6°F9.2°C 46.6°F8.1°C 93% Calm Calm -- 30.37 in1028.4 mb - 0.00 in0.0 mm 0.00 in0.0 mm
02:05 AM 48.6°F9.2°C 46.6°F8.1°C 93% Calm Calm -- 30.37 in1028.4 mb - 0.00 in0.0 mm 0.00 in0.0 mm
02:00 AM 48.9°F9.4°C 47.6°F8.7°C 95% Calm Calm -- 30.37 in1028.4 mb - 0.00 in0.0 mm 0.00 in0.0 mm
01:55 AM 48.9°F9.4°C 47.6°F8.7°C 95% Calm Calm 1.2 mph1.9 kmh 30.37 in1028.4 mb - 0.00 in0.0 mm 0.00 in0.0 mm
01:50 AM 48.9°F9.4°C 47.0°F8.3°C 93% Calm Calm -- 30.37 in1028.4 mb - 0.00 in0.0 mm 0.00 in0.0 mm
01:45 AM 48.9°F9.4°C 47.0°F8.3°C 93% Calm Calm 1.2 mph1.9 kmh 30.37 in1028.4 mb - 0.00 in0.0 mm 0.00 in0.0 mm
01:40 AM 48.9°F9.4°C 47.0°F8.3°C 93% Calm Calm -- 30.37 in1028.4 mb - 0.00 in0.0 mm 0.00 in0.0 mm
01:35 AM 48.9°F9.4°C 47.0°F8.3°C 93% Calm Calm -- 30.37 in1028.4 mb - 0.00 in0.0 mm 0.00 in0.0 mm
01:30 AM 48.9°F9.4°C 47.0°F8.3°C 93% Calm Calm -- 30.38 in1028.8 mb - 0.00 in0.0 mm 0.00 in0.0 mm
01:25 AM 48.9°F9.4°C 47.0°F8.3°C 93% Calm Calm 2.3 mph3.7 kmh 30.38 in1028.8 mb - 0.00 in0.0 mm 0.00 in0.0 mm
01:20 AM 49.3°F9.6°C 47.3°F8.5°C 93% Calm Calm -- 30.38 in1028.8 mb - 0.00 in0.0 mm 0.00 in0.0 mm
01:15 AM 49.4°F9.7°C 47.4°F8.6°C 93% Calm Calm -- 30.37 in1028.4 mb - 0.00 in0.0 mm 0.00 in0.0 mm
01:10 AM 49.6°F9.8°C 47.6°F8.7°C 93% Calm Calm -- 30.38 in1028.8 mb - 0.00 in0.0 mm 0.00 in0.0 mm
01:05 AM 49.6°F9.8°C 47.7°F8.7°C 93% Calm Calm 2.3 mph3.7 kmh 30.38 in1028.8 mb - 0.00 in0.0 mm 0.00 in0.0 mm
01:00 AM 49.6°F9.8°C 47.7°F8.7°C 93% Calm Calm -- 30.38 in1028.8 mb - 0.00 in0.0 mm 0.00 in0.0 mm
12:55 AM 49.8°F9.9°C 47.9°F8.8°C 93% Calm Calm -- 30.37 in1028.4 mb - 0.00 in0.0 mm 0.00 in0.0 mm
12:50 AM 49.8°F9.9°C 47.9°F8.8°C 93% Calm Calm -- 30.37 in1028.4 mb - 0.00 in0.0 mm 0.00 in0.0 mm
12:45 AM 49.8°F9.9°C 47.9°F8.8°C 93% Calm Calm -- 30.37 in1028.4 mb - 0.00 in0.0 mm 0.00 in0.0 mm
12:40 AM 50.0°F10.0°C 48.1°F8.9°C 93% Calm Calm 1.2 mph1.9 kmh 30.37 in1028.4 mb - 0.00 in0.0 mm 0.00 in0.0 mm
12:35 AM 50.0°F10.0°C 48.1°F8.9°C 93% Calm Calm -- 30.37 in1028.4 mb - 0.00 in0.0 mm 0.00 in0.0 mm
12:30 AM 50.0°F10.0°C 48.1°F8.9°C 93% 1.2 mph NE1.9 kmh NE 1.2 mph1.9 kmh 30.37 in1028.4 mb - 0.00 in0.0 mm 0.00 in0.0 mm
12:25 AM 50.0°F10.0°C 48.1°F8.9°C 93% 1.2 mph E1.9 kmh E -- 30.37 in1028.4 mb - 0.00 in0.0 mm 0.00 in0.0 mm
12:20 AM 50.0°F10.0°C 48.1°F8.9°C 93% Calm Calm -- 30.38 in1028.8 mb - 0.00 in0.0 mm 0.00 in0.0 mm
12:15 AM 50.0°F10.0°C 48.1°F8.9°C 93% 1.2 mph NE1.9 kmh NE -- 30.38 in1028.8 mb - 0.00 in0.0 mm 0.00 in0.0 mm
12:10 AM 50.0°F10.0°C 48.1°F8.9°C 93% 1.2 mph NE1.9 kmh NE 1.2 mph1.9 kmh 30.38 in1028.8 mb - 0.00 in0.0 mm 0.00 in0.0 mm
12:05 AM 50.0°F10.0°C 48.1°F8.9°C 93% Calm Calm 2.3 mph3.7 kmh 30.38 in1028.8 mb - 0.00 in0.0 mm 0.00 in0.0 mm
12:00 AM 50.0°F10.0°C 48.1°F8.9°C 93% 1.2 mph ESE1.9 kmh ESE -- 30.38 in1028.8 mb - 0.00 in0.0 mm 0.00 in0.0 mm